Harry B. Settoon — WDE5658 — position and weather

sailwx.info

Track history (hours):
 
Tides and Currents Weather Stations Pressure Air Temp Water Temp Dewpoint Dewpoint Depression Visibility Wind Speed Wind Dir Waves Ship Positions

Harry B. Settoon

Owner: Settoon Towing, LLC, Houma, LA. More information available from US FCC via Universal Licensing System and Coast Guard Vessel Documentation Center.

Last reported at 2015-Jul-06 13:32 UTC. Time now 2015-Jul-07 06:47 UTC.
Position N 29°34' W 090°56'.

; draft 1.8 m.

Type: Tug. MMSI: 367369920.

Date/timePositionNaut miles runAvg speedWind from/ knotsBaromVisibWave heightAir tempDewpointWater temp
2015-Jul-06 13:32N 29°34' W 090°56'6 6.4
2015-Jul-06 12:33N 29°32' W 090°49'5 5.5
2015-Jul-06 11:33N 29°34' W 090°43'3 3.0
2015-Jul-06 10:33N 29°37' W 090°42'0 0.0
2015-Jul-06 09:33N 29°37' W 090°42'0 0.0
2015-Jul-06 08:33N 29°37' W 090°42'0 0.0
2015-Jul-06 07:33N 29°37' W 090°42'0 0.0
2015-Jul-06 06:33N 29°37' W 090°42'0 0.1
2015-Jul-06 05:33N 29°37' W 090°42'0 0.0
2015-Jul-06 04:33N 29°37' W 090°42'0 0.0
2015-Jul-06 03:33N 29°37' W 090°42'0 0.0
2015-Jul-06 02:33N 29°37' W 090°42'0 0.0
2015-Jul-06 01:33N 29°37' W 090°42'0 0.0
2015-Jul-06 00:33N 29°37' W 090°42'0 0.0
2015-Jul-05 23:33N 29°37' W 090°42'0 0.0
2015-Jul-05 22:33N 29°37' W 090°42'0 0.0
2015-Jul-05 21:33N 29°37' W 090°42'0 0.0
2015-Jul-05 20:33N 29°37' W 090°42'0 0.0
2015-Jul-05 19:33N 29°37' W 090°42'0 0.0
2015-Jul-05 18:33N 29°37' W 090°42'0 0.0
2015-Jul-05 17:33N 29°37' W 090°42'0 0.0
2015-Jul-05 16:33N 29°37' W 090°42'0 0.0
2015-Jul-05 15:33N 29°37' W 090°42'0 0.0
2015-Jul-05 14:33N 29°37' W 090°42'0 0.0
2015-Jul-05 13:33N 29°37' W 090°42'0 0.0
2015-Jul-05 12:33N 29°37' W 090°42'0 0.0
2015-Jul-05 11:33N 29°37' W 090°42'0 0.0
2015-Jul-05 10:33N 29°37' W 090°42'0 0.0
2015-Jul-05 09:33N 29°37' W 090°42'0 0.0
2015-Jul-05 08:33N 29°37' W 090°42'0 0.0
2015-Jul-05 07:33N 29°37' W 090°42'0 0.0
2015-Jul-05 06:33N 29°37' W 090°42'0 0.0
2015-Jul-05 05:33N 29°37' W 090°42'0 0.0
2015-Jul-05 04:33N 29°37' W 090°42'0 0.0
2015-Jul-05 03:33N 29°37' W 090°42'0 0.0
2015-Jul-05 02:33N 29°37' W 090°42'0 0.0
2015-Jul-05 01:33N 29°37' W 090°42'0 0.0
2015-Jul-05 00:33N 29°37' W 090°42'0 0.0
2015-Jul-04 23:33N 29°37' W 090°42'0 0.0
2015-Jul-04 22:33N 29°37' W 090°42'0 0.0
2015-Jul-04 21:33N 29°37' W 090°42'0 0.0
2015-Jul-04 20:33N 29°37' W 090°42'0 0.0
2015-Jul-04 19:33N 29°37' W 090°42'0 0.0
2015-Jul-04 18:33N 29°37' W 090°42'0 0.0
2015-Jul-04 17:33N 29°37' W 090°42'0 0.0
2015-Jul-04 16:33N 29°37' W 090°42'3 2.8
2015-Jul-04 15:33N 29°34' W 090°43'5 5.3
2015-Jul-04 14:33N 29°32' W 090°49'9 0.5
2015-Jul-03 20:26N 29°36' W 090°58'5 6.3
2015-Jul-03 19:33N 29°32' W 090°53'6 6.3
2015-Jul-03 18:33N 29°32' W 090°46'5 4.7
2015-Jul-03 17:33N 29°36' W 090°43'1 1.0
2015-Jul-03 16:33N 29°37' W 090°42'0 0.0
2015-Jul-03 15:33N 29°37' W 090°42'0 0.0
2015-Jul-03 14:33N 29°37' W 090°42'0 0.0
2015-Jul-03 13:33N 29°37' W 090°42'0 0.0
2015-Jul-03 12:33N 29°37' W 090°42'0 0.1
2015-Jul-03 11:33N 29°37' W 090°42'0 0.0
2015-Jul-03 10:33N 29°37' W 090°42'0 0.0
2015-Jul-03 09:33N 29°37' W 090°42'0 0.0
2015-Jul-03 08:33N 29°37' W 090°42'0 0.0
2015-Jul-03 07:33N 29°37' W 090°42'0 0.0
2015-Jul-03 06:33N 29°37' W 090°42'0 0.0
2015-Jul-03 05:33N 29°37' W 090°42'0 0.0
2015-Jul-03 04:33N 29°37' W 090°42'0 0.0
2015-Jul-03 03:33N 29°37' W 090°42'0 0.0
2015-Jul-03 02:33N 29°37' W 090°42'0 0.0
2015-Jul-03 01:33N 29°37' W 090°42'0 0.0
2015-Jul-03 00:33N 29°37' W 090°42'0 0.0
2015-Jul-02 23:33N 29°37' W 090°42'0 0.0
2015-Jul-02 22:33N 29°37' W 090°42'0 0.0
2015-Jul-02 21:33N 29°37' W 090°42'0 0.0
2015-Jul-02 20:33N 29°37' W 090°42'0 0.0
2015-Jul-02 19:33N 29°37' W 090°42'0 0.0
2015-Jul-02 18:33N 29°37' W 090°42'0 0.0
2015-Jul-02 17:33N 29°37' W 090°42'0 0.0
2015-Jul-02 16:33N 29°37' W 090°42'0 0.0
2015-Jul-02 15:33N 29°37' W 090°42'0 0.0
2015-Jul-02 14:33N 29°37' W 090°42'0 0.0
2015-Jul-02 13:33N 29°37' W 090°42'4 3.8
2015-Jul-02 12:33N 29°34' W 090°44'13 0.4
2015-Jul-01 05:23N 29°37' W 090°59'6 6.6
2015-Jul-01 04:33N 29°33' W 090°55'7 6.6
2015-Jul-01 03:33N 29°32' W 090°47'6 5.6
2015-Jul-01 02:33N 29°36' W 090°43'1 1.0
2015-Jul-01 01:33N 29°37' W 090°42'0 0.0
2015-Jul-01 00:33N 29°37' W 090°42'0 0.0
2015-Jun-30 23:33N 29°37' W 090°42'0 0.0
2015-Jun-30 22:33N 29°37' W 090°42'0 0.0
2015-Jun-30 21:33N 29°37' W 090°42'0 0.1
2015-Jun-30 20:33N 29°37' W 090°42'0 0.0
2015-Jun-30 19:33N 29°37' W 090°42'0 0.0
2015-Jun-30 18:33N 29°37' W 090°42'0 0.0
2015-Jun-30 17:33N 29°37' W 090°42'0 0.0
2015-Jun-30 16:33N 29°37' W 090°42'0 0.0
2015-Jun-30 15:33N 29°37' W 090°42'0 0.0
2015-Jun-30 14:33N 29°37' W 090°42'0 0.0
2015-Jun-30 13:33N 29°37' W 090°42'0 0.0
2015-Jun-30 12:33N 29°37' W 090°42'0 0.0
2015-Jun-30 11:33N 29°37' W 090°42'0 0.0
2015-Jun-30 10:33N 29°37' W 090°42'0 0.0
2015-Jun-30 09:33N 29°37' W 090°42'0 0.0
2015-Jun-30 08:33N 29°37' W 090°42'0 0.0
2015-Jun-30 07:33N 29°37' W 090°42'0 0.0
2015-Jun-30 06:33N 29°37' W 090°42'0 0.0
2015-Jun-30 05:33N 29°37' W 090°42'0 0.0
2015-Jun-30 04:33N 29°37' W 090°42'0 0.0
2015-Jun-30 03:33N 29°37' W 090°42'0 0.0
2015-Jun-30 02:33N 29°37' W 090°42'0 0.0
2015-Jun-30 01:33N 29°37' W 090°42'0 0.0
2015-Jun-30 00:33N 29°37' W 090°42'0 0.0
2015-Jun-29 23:33N 29°37' W 090°42'0 0.0
2015-Jun-29 22:33N 29°37' W 090°42'0 0.0
2015-Jun-29 21:33N 29°37' W 090°42'0 0.0
2015-Jun-29 20:33N 29°37' W 090°42'0 0.0
2015-Jun-29 19:33N 29°37' W 090°42'0 0.0
2015-Jun-29 18:33N 29°37' W 090°42'0 0.0
2015-Jun-29 17:33N 29°37' W 090°42'0 0.0
2015-Jun-29 16:33N 29°37' W 090°42'0 0.0
2015-Jun-29 15:33N 29°37' W 090°42'0 0.0
2015-Jun-29 14:33N 29°37' W 090°42'0 0.0
2015-Jun-29 13:33N 29°37' W 090°42'0 0.0
2015-Jun-29 12:33N 29°37' W 090°42'0 0.0
2015-Jun-29 11:33N 29°37' W 090°42'0 0.0
2015-Jun-29 10:33N 29°37' W 090°42'0 0.0
2015-Jun-29 09:33N 29°37' W 090°42'0 0.0
2015-Jun-29 08:33N 29°37' W 090°42'0 0.0
2015-Jun-29 07:33N 29°37' W 090°42'0 0.0
2015-Jun-29 06:33N 29°37' W 090°42'0 0.0
2015-Jun-29 05:33N 29°37' W 090°42'0 0.0
2015-Jun-29 04:33N 29°37' W 090°42'3 3.4
2015-Jun-29 03:33N 29°34' W 090°44'6 6.2
2015-Jun-29 02:33N 29°32' W 090°51'8 0.5
2015-Jun-28 10:07N 29°36' W 090°58'3 6.0
2015-Jun-28 09:33N 29°34' W 090°55'6 6.0
2015-Jun-28 08:33N 29°32' W 090°49'5 5.0
2015-Jun-28 07:33N 29°34' W 090°43'3 3.3
2015-Jun-28 06:33N 29°37' W 090°42'0 0.0
2015-Jun-28 05:33N 29°37' W 090°42'0 0.0
2015-Jun-28 04:33N 29°37' W 090°42'0 0.0
2015-Jun-28 03:33N 29°37' W 090°42'0 0.0
2015-Jun-28 02:33N 29°37' W 090°42'0 0.0
2015-Jun-28 01:33N 29°37' W 090°42'0 0.1
2015-Jun-28 00:33N 29°37' W 090°42'0 0.0
2015-Jun-27 23:33N 29°37' W 090°42'0 0.2
2015-Jun-27 22:33N 29°37' W 090°42'4 4.2
2015-Jun-27 21:33N 29°33' W 090°45'9 0.5
2015-Jun-27 02:33N 29°34' W 090°56'6 6.4
2015-Jun-27 01:33N 29°32' W 090°49'5 5.5
2015-Jun-27 00:33N 29°35' W 090°43'2 2.4
2015-Jun-26 23:33N 29°37' W 090°42'0 0.0
2015-Jun-26 22:33N 29°37' W 090°42'0 0.0
2015-Jun-26 21:33N 29°37' W 090°42'0 0.0
2015-Jun-26 20:33N 29°37' W 090°42'0 0.0
2015-Jun-26 19:33N 29°37' W 090°42'0 0.1
2015-Jun-26 18:33N 29°37' W 090°42'0 0.0
2015-Jun-26 17:33N 29°37' W 090°42'0 0.0
2015-Jun-26 16:33N 29°37' W 090°42'0 0.0
2015-Jun-26 15:33N 29°37' W 090°42'0 0.0
2015-Jun-26 14:33N 29°37' W 090°42'0 0.0
2015-Jun-26 13:33N 29°37' W 090°42'  
Track history (hours):
 
Tides and Currents Weather Stations Pressure Air Temp Water Temp Dewpoint Dewpoint Depression Visibility Wind Speed Wind Dir Waves Ship Positions

Harry B. Settoon

Owner: Settoon Towing, LLC, Houma, LA. More information available from US FCC via Universal Licensing System and Coast Guard Vessel Documentation Center.

Last reported at 2015-Jul-06 13:32 UTC. Time now 2015-Jul-07 06:47 UTC.
Position N 29°34' W 090°56'.

; draft 1.8 m.

Type: Tug. MMSI: 367369920.

Date/timePositionNaut miles runAvg speedWind from/ knotsBaromVisibWave heightAir tempDewpointWater temp
2015-Jul-06 13:32N 29°34' W 090°56'6 6.4
2015-Jul-06 12:33N 29°32' W 090°49'5 5.5
2015-Jul-06 11:33N 29°34' W 090°43'3 3.0
2015-Jul-06 10:33N 29°37' W 090°42'0 0.0
2015-Jul-06 09:33N 29°37' W 090°42'0 0.0
2015-Jul-06 08:33N 29°37' W 090°42'0 0.0
2015-Jul-06 07:33N 29°37' W 090°42'0 0.0
2015-Jul-06 06:33N 29°37' W 090°42'0 0.1
2015-Jul-06 05:33N 29°37' W 090°42'0 0.0
2015-Jul-06 04:33N 29°37' W 090°42'0 0.0
2015-Jul-06 03:33N 29°37' W 090°42'0 0.0
2015-Jul-06 02:33N 29°37' W 090°42'0 0.0
2015-Jul-06 01:33N 29°37' W 090°42'0 0.0
2015-Jul-06 00:33N 29°37' W 090°42'0 0.0
2015-Jul-05 23:33N 29°37' W 090°42'0 0.0
2015-Jul-05 22:33N 29°37' W 090°42'0 0.0
2015-Jul-05 21:33N 29°37' W 090°42'0 0.0
2015-Jul-05 20:33N 29°37' W 090°42'0 0.0
2015-Jul-05 19:33N 29°37' W 090°42'0 0.0
2015-Jul-05 18:33N 29°37' W 090°42'0 0.0
2015-Jul-05 17:33N 29°37' W 090°42'0 0.0
2015-Jul-05 16:33N 29°37' W 090°42'0 0.0
2015-Jul-05 15:33N 29°37' W 090°42'0 0.0
2015-Jul-05 14:33N 29°37' W 090°42'0 0.0
2015-Jul-05 13:33N 29°37' W 090°42'0 0.0
2015-Jul-05 12:33N 29°37' W 090°42'0 0.0
2015-Jul-05 11:33N 29°37' W 090°42'0 0.0
2015-Jul-05 10:33N 29°37' W 090°42'0 0.0
2015-Jul-05 09:33N 29°37' W 090°42'0 0.0
2015-Jul-05 08:33N 29°37' W 090°42'0 0.0
2015-Jul-05 07:33N 29°37' W 090°42'0 0.0
2015-Jul-05 06:33N 29°37' W 090°42'0 0.0
2015-Jul-05 05:33N 29°37' W 090°42'0 0.0
2015-Jul-05 04:33N 29°37' W 090°42'0 0.0
2015-Jul-05 03:33N 29°37' W 090°42'0 0.0
2015-Jul-05 02:33N 29°37' W 090°42'0 0.0
2015-Jul-05 01:33N 29°37' W 090°42'0 0.0
2015-Jul-05 00:33N 29°37' W 090°42'0 0.0
2015-Jul-04 23:33N 29°37' W 090°42'0 0.0
2015-Jul-04 22:33N 29°37' W 090°42'0 0.0
2015-Jul-04 21:33N 29°37' W 090°42'0 0.0
2015-Jul-04 20:33N 29°37' W 090°42'0 0.0
2015-Jul-04 19:33N 29°37' W 090°42'0 0.0
2015-Jul-04 18:33N 29°37' W 090°42'0 0.0
2015-Jul-04 17:33N 29°37' W 090°42'0 0.0
2015-Jul-04 16:33N 29°37' W 090°42'3 2.8
2015-Jul-04 15:33N 29°34' W 090°43'5 5.3
2015-Jul-04 14:33N 29°32' W 090°49'9 0.5
2015-Jul-03 20:26N 29°36' W 090°58'5 6.3
2015-Jul-03 19:33N 29°32' W 090°53'6 6.3
2015-Jul-03 18:33N 29°32' W 090°46'5 4.7
2015-Jul-03 17:33N 29°36' W 090°43'1 1.0
2015-Jul-03 16:33N 29°37' W 090°42'0 0.0
2015-Jul-03 15:33N 29°37' W 090°42'0 0.0
2015-Jul-03 14:33N 29°37' W 090°42'0 0.0
2015-Jul-03 13:33N 29°37' W 090°42'0 0.0
2015-Jul-03 12:33N 29°37' W 090°42'0 0.1
2015-Jul-03 11:33N 29°37' W 090°42'0 0.0
2015-Jul-03 10:33N 29°37' W 090°42'0 0.0
2015-Jul-03 09:33N 29°37' W 090°42'0 0.0
2015-Jul-03 08:33N 29°37' W 090°42'0 0.0
2015-Jul-03 07:33N 29°37' W 090°42'0 0.0
2015-Jul-03 06:33N 29°37' W 090°42'0 0.0
2015-Jul-03 05:33N 29°37' W 090°42'0 0.0
2015-Jul-03 04:33N 29°37' W 090°42'0 0.0
2015-Jul-03 03:33N 29°37' W 090°42'0 0.0
2015-Jul-03 02:33N 29°37' W 090°42'0 0.0
2015-Jul-03 01:33N 29°37' W 090°42'0 0.0
2015-Jul-03 00:33N 29°37' W 090°42'0 0.0
2015-Jul-02 23:33N 29°37' W 090°42'0 0.0
2015-Jul-02 22:33N 29°37' W 090°42'0 0.0
2015-Jul-02 21:33N 29°37' W 090°42'0 0.0
2015-Jul-02 20:33N 29°37' W 090°42'0 0.0
2015-Jul-02 19:33N 29°37' W 090°42'0 0.0
2015-Jul-02 18:33N 29°37' W 090°42'0 0.0
2015-Jul-02 17:33N 29°37' W 090°42'0 0.0
2015-Jul-02 16:33N 29°37' W 090°42'0 0.0
2015-Jul-02 15:33N 29°37' W 090°42'0 0.0
2015-Jul-02 14:33N 29°37' W 090°42'0 0.0
2015-Jul-02 13:33N 29°37' W 090°42'4 3.8
2015-Jul-02 12:33N 29°34' W 090°44'13 0.4
2015-Jul-01 05:23N 29°37' W 090°59'6 6.6
2015-Jul-01 04:33N 29°33' W 090°55'7 6.6
2015-Jul-01 03:33N 29°32' W 090°47'6 5.6
2015-Jul-01 02:33N 29°36' W 090°43'1 1.0
2015-Jul-01 01:33N 29°37' W 090°42'0 0.0
2015-Jul-01 00:33N 29°37' W 090°42'0 0.0
2015-Jun-30 23:33N 29°37' W 090°42'0 0.0
2015-Jun-30 22:33N 29°37' W 090°42'0 0.0
2015-Jun-30 21:33N 29°37' W 090°42'0 0.1
2015-Jun-30 20:33N 29°37' W 090°42'0 0.0
2015-Jun-30 19:33N 29°37' W 090°42'0 0.0
2015-Jun-30 18:33N 29°37' W 090°42'0 0.0
2015-Jun-30 17:33N 29°37' W 090°42'0 0.0
2015-Jun-30 16:33N 29°37' W 090°42'0 0.0
2015-Jun-30 15:33N 29°37' W 090°42'0 0.0
2015-Jun-30 14:33N 29°37' W 090°42'0 0.0
2015-Jun-30 13:33N 29°37' W 090°42'0 0.0
2015-Jun-30 12:33N 29°37' W 090°42'0 0.0
2015-Jun-30 11:33N 29°37' W 090°42'0 0.0
2015-Jun-30 10:33N 29°37' W 090°42'0 0.0
2015-Jun-30 09:33N 29°37' W 090°42'0 0.0
2015-Jun-30 08:33N 29°37' W 090°42'0 0.0
2015-Jun-30 07:33N 29°37' W 090°42'0 0.0
2015-Jun-30 06:33N 29°37' W 090°42'0 0.0
2015-Jun-30 05:33N 29°37' W 090°42'0 0.0
2015-Jun-30 04:33N 29°37' W 090°42'0 0.0
2015-Jun-30 03:33N 29°37' W 090°42'0 0.0
2015-Jun-30 02:33N 29°37' W 090°42'0 0.0
2015-Jun-30 01:33N 29°37' W 090°42'0 0.0
2015-Jun-30 00:33N 29°37' W 090°42'0 0.0
2015-Jun-29 23:33N 29°37' W 090°42'0 0.0
2015-Jun-29 22:33N 29°37' W 090°42'0 0.0
2015-Jun-29 21:33N 29°37' W 090°42'0 0.0
2015-Jun-29 20:33N 29°37' W 090°42'0 0.0
2015-Jun-29 19:33N 29°37' W 090°42'0 0.0
2015-Jun-29 18:33N 29°37' W 090°42'0 0.0
2015-Jun-29 17:33N 29°37' W 090°42'0 0.0
2015-Jun-29 16:33N 29°37' W 090°42'0 0.0
2015-Jun-29 15:33N 29°37' W 090°42'0 0.0
2015-Jun-29 14:33N 29°37' W 090°42'0 0.0
2015-Jun-29 13:33N 29°37' W 090°42'0 0.0
2015-Jun-29 12:33N 29°37' W 090°42'0 0.0
2015-Jun-29 11:33N 29°37' W 090°42'0 0.0
2015-Jun-29 10:33N 29°37' W 090°42'0 0.0
2015-Jun-29 09:33N 29°37' W 090°42'0 0.0
2015-Jun-29 08:33N 29°37' W 090°42'0 0.0
2015-Jun-29 07:33N 29°37' W 090°42'0 0.0
2015-Jun-29 06:33N 29°37' W 090°42'0 0.0
2015-Jun-29 05:33N 29°37' W 090°42'0 0.0
2015-Jun-29 04:33N 29°37' W 090°42'3 3.4
2015-Jun-29 03:33N 29°34' W 090°44'6 6.2
2015-Jun-29 02:33N 29°32' W 090°51'8 0.5
2015-Jun-28 10:07N 29°36' W 090°58'3 6.0
2015-Jun-28 09:33N 29°34' W 090°55'6 6.0
2015-Jun-28 08:33N 29°32' W 090°49'5 5.0
2015-Jun-28 07:33N 29°34' W 090°43'3 3.3
2015-Jun-28 06:33N 29°37' W 090°42'0 0.0
2015-Jun-28 05:33N 29°37' W 090°42'0 0.0
2015-Jun-28 04:33N 29°37' W 090°42'0 0.0
2015-Jun-28 03:33N 29°37' W 090°42'0 0.0
2015-Jun-28 02:33N 29°37' W 090°42'0 0.0
2015-Jun-28 01:33N 29°37' W 090°42'0 0.1
2015-Jun-28 00:33N 29°37' W 090°42'0 0.0
2015-Jun-27 23:33N 29°37' W 090°42'0 0.2
2015-Jun-27 22:33N 29°37' W 090°42'4 4.2
2015-Jun-27 21:33N 29°33' W 090°45'9 0.5
2015-Jun-27 02:33N 29°34' W 090°56'6 6.4
2015-Jun-27 01:33N 29°32' W 090°49'5 5.5
2015-Jun-27 00:33N 29°35' W 090°43'2 2.4
2015-Jun-26 23:33N 29°37' W 090°42'0 0.0
2015-Jun-26 22:33N 29°37' W 090°42'0 0.0
2015-Jun-26 21:33N 29°37' W 090°42'0 0.0
2015-Jun-26 20:33N 29°37' W 090°42'0 0.0
2015-Jun-26 19:33N 29°37' W 090°42'0 0.1
2015-Jun-26 18:33N 29°37' W 090°42'0 0.0
2015-Jun-26 17:33N 29°37' W 090°42'0 0.0
2015-Jun-26 16:33N 29°37' W 090°42'0 0.0
2015-Jun-26 15:33N 29°37' W 090°42'0 0.0
2015-Jun-26 14:33N 29°37' W 090°42'0 0.0
2015-Jun-26 13:33N 29°37' W 090°42'  

Dump ship's entire track history